createdAt,value
2019-04-10T00:00:28.608Z,1012.70
2019-04-10T00:01:27.827Z,1012.76
2019-04-10T00:02:27.580Z,1012.81
2019-04-10T00:03:32.817Z,1012.72
2019-04-10T00:04:29.487Z,1012.78
2019-04-10T00:05:27.766Z,1012.81
2019-04-10T00:06:27.887Z,1012.79
2019-04-10T00:07:27.492Z,1012.80
2019-04-10T00:08:28.324Z,1012.82
2019-04-10T00:09:27.473Z,1012.83
2019-04-10T00:10:27.796Z,1012.81
2019-04-10T00:11:27.459Z,1012.87
2019-04-10T00:12:27.583Z,1012.86
2019-04-10T00:13:27.433Z,1012.85
2019-04-10T00:14:28.246Z,1012.81
2019-04-10T00:15:28.376Z,1012.83
2019-04-10T00:16:27.793Z,1012.76
2019-04-10T00:17:27.391Z,1012.78
2019-04-10T00:18:27.374Z,1012.81
2019-04-10T00:19:27.377Z,1012.75
2019-04-10T00:20:27.375Z,1012.75
2019-04-10T00:21:27.395Z,1012.84
2019-04-10T00:22:28.409Z,1012.85
2019-04-10T00:23:27.322Z,1012.87
2019-04-10T00:24:28.174Z,1012.79
2019-04-10T00:25:27.311Z,1012.86
2019-04-10T00:26:27.841Z,1012.85
2019-04-10T00:27:28.230Z,1012.80
2019-04-10T00:28:27.602Z,1012.82
2019-04-10T00:29:27.979Z,1012.86
2019-04-10T00:30:27.298Z,1012.82
2019-04-10T00:31:27.233Z,1012.79
2019-04-10T00:32:27.909Z,1012.82
2019-04-10T00:33:27.216Z,1012.80
2019-04-10T00:34:27.202Z,1012.82
2019-04-10T00:35:27.655Z,1012.80
2019-04-10T00:36:27.196Z,1012.82
2019-04-10T00:37:30.297Z,1012.88
2019-04-10T00:38:27.155Z,1012.80
2019-04-10T00:39:27.146Z,1012.81
2019-04-10T00:40:27.678Z,1012.85
2019-04-10T00:41:27.980Z,1012.80
2019-04-10T00:42:27.510Z,1012.84
2019-04-10T00:43:27.105Z,1012.80
2019-04-10T00:44:27.890Z,1012.79
2019-04-10T00:45:27.193Z,1012.77
2019-04-10T00:46:27.089Z,1012.78
2019-04-10T00:47:27.067Z,1012.77
2019-04-10T00:48:27.945Z,1012.76
2019-04-10T00:49:27.087Z,1012.85
2019-04-10T00:50:27.031Z,1012.83
2019-04-10T00:51:27.604Z,1012.83
2019-04-10T00:52:27.013Z,1012.79
2019-04-10T00:53:27.325Z,1012.84
2019-04-10T00:54:26.991Z,1012.80
2019-04-10T00:55:28.633Z,1012.82
2019-04-10T00:56:26.984Z,1012.81
2019-04-10T00:57:27.517Z,1012.83
2019-04-10T00:58:27.953Z,1012.90
2019-04-10T00:59:26.944Z,1012.86
2019-04-10T01:00:26.932Z,1012.89
2019-04-10T01:01:27.689Z,1012.89
2019-04-10T01:02:26.972Z,1012.79
2019-04-10T01:03:26.912Z,1012.81
2019-04-10T01:04:26.886Z,1012.92
2019-04-10T01:05:27.031Z,1012.81
2019-04-10T01:06:26.888Z,1012.80
2019-04-10T01:07:36.466Z,1012.85
2019-04-10T01:08:28.682Z,1012.80
2019-04-10T01:09:26.830Z,1012.80
2019-04-10T01:10:26.820Z,1012.85
2019-04-10T01:11:27.392Z,1012.79
2019-04-10T01:12:27.754Z,1012.83
2019-04-10T01:13:27.137Z,1012.84
2019-04-10T01:14:26.792Z,1012.82
2019-04-10T01:15:26.792Z,1012.85
2019-04-10T01:16:27.196Z,1012.84
2019-04-10T01:17:26.745Z,1012.85
2019-04-10T01:18:26.841Z,1012.78
2019-04-10T01:19:26.788Z,1012.76
2019-04-10T01:20:26.712Z,1012.81
2019-04-10T01:21:26.731Z,1012.76
2019-04-10T01:22:27.495Z,1012.80
2019-04-10T01:23:26.799Z,1012.76
2019-04-10T01:24:27.874Z,1012.79
2019-04-10T01:25:26.663Z,1012.78
2019-04-10T01:26:28.081Z,1012.82
2019-04-10T01:27:27.702Z,1012.79
2019-04-10T01:28:26.818Z,1012.82
2019-04-10T01:29:27.267Z,1012.79
2019-04-10T01:30:26.608Z,1012.80
2019-04-10T01:31:26.846Z,1012.81
2019-04-10T01:32:26.602Z,1012.80
2019-04-10T01:33:26.577Z,1012.79
2019-04-10T01:34:27.516Z,1012.81
2019-04-10T01:35:26.677Z,1012.76
2019-04-10T01:36:27.001Z,1012.74
2019-04-10T01:37:26.945Z,1012.78
2019-04-10T01:38:27.233Z,1012.75
2019-04-10T01:39:26.569Z,1012.80
2019-04-10T01:40:26.753Z,1012.84
2019-04-10T01:41:26.492Z,1012.81
2019-04-10T01:42:26.482Z,1012.85
2019-04-10T01:43:26.673Z,1012.84
2019-04-10T01:44:26.878Z,1012.83
2019-04-10T01:45:27.279Z,1012.88
2019-04-10T01:46:26.511Z,1012.82
2019-04-10T01:47:26.908Z,1012.82
2019-04-10T01:48:26.420Z,1012.80
2019-04-10T01:49:26.422Z,1012.77
2019-04-10T01:50:26.424Z,1012.85
2019-04-10T01:51:27.479Z,1012.85
2019-04-10T01:52:26.382Z,1012.84
2019-04-10T01:53:26.366Z,1012.84
2019-04-10T01:54:26.987Z,1012.81
2019-04-10T01:55:29.879Z,1012.80
2019-04-10T01:56:31.623Z,1012.86
2019-04-10T01:57:28.186Z,1012.83
2019-04-10T01:58:27.285Z,1012.83
2019-04-10T01:59:26.320Z,1012.82
2019-04-10T02:00:27.774Z,1012.87
2019-04-10T02:01:26.281Z,1012.84
2019-04-10T02:02:27.302Z,1012.79
2019-04-10T02:03:26.279Z,1012.79
2019-04-10T02:04:26.833Z,1012.79
2019-04-10T02:05:26.245Z,1012.77
2019-04-10T02:06:27.148Z,1012.76
2019-04-10T02:07:26.504Z,1012.77
2019-04-10T02:08:26.210Z,1012.82
2019-04-10T02:09:26.208Z,1012.86
2019-04-10T02:10:26.190Z,1012.78
2019-04-10T02:11:26.183Z,1012.87
2019-04-10T02:12:26.337Z,1012.81
2019-04-10T02:13:26.155Z,1012.79
2019-04-10T02:14:26.186Z,1012.83
2019-04-10T02:15:26.156Z,1012.79
2019-04-10T02:16:27.131Z,1012.77
2019-04-10T02:17:26.112Z,1012.84
2019-04-10T02:18:26.100Z,1012.83
2019-04-10T02:19:26.215Z,1012.85
2019-04-10T02:20:27.086Z,1012.83
2019-04-10T02:21:26.066Z,1012.81
2019-04-10T02:22:26.627Z,1012.81
2019-04-10T02:23:26.149Z,1012.85
2019-04-10T02:24:27.194Z,1012.84
2019-04-10T02:25:26.040Z,1012.76
2019-04-10T02:26:26.017Z,1012.86
2019-04-10T02:27:26.740Z,1012.87
2019-04-10T02:28:26.951Z,1012.83
2019-04-10T02:29:26.024Z,1012.90
2019-04-10T02:30:26.414Z,1012.90
2019-04-10T02:31:27.992Z,1012.86
2019-04-10T02:32:26.523Z,1012.87
2019-04-10T02:33:27.475Z,1012.81
2019-04-10T02:34:25.941Z,1012.88
2019-04-10T02:35:27.326Z,1012.79
2019-04-10T02:36:27.734Z,1012.80
2019-04-10T02:37:27.106Z,1012.84
2019-04-10T02:38:43.055Z,1012.79
2019-04-10T02:39:35.491Z,1012.83
2019-04-10T02:40:26.901Z,1012.84
2019-04-10T02:41:25.865Z,1012.85
2019-04-10T02:42:26.777Z,1012.82
2019-04-10T02:43:27.206Z,1012.84
2019-04-10T02:44:27.978Z,1012.90
2019-04-10T02:45:25.984Z,1012.83
2019-04-10T02:46:26.885Z,1012.88
2019-04-10T02:47:26.553Z,1012.85
2019-04-10T02:48:25.793Z,1012.85
2019-04-10T02:49:25.779Z,1012.88
2019-04-10T02:50:27.196Z,1012.85
2019-04-10T02:51:27.053Z,1012.85
2019-04-10T02:52:26.013Z,1012.82
2019-04-10T02:53:25.869Z,1012.87
2019-04-10T02:54:27.069Z,1012.81
2019-04-10T02:55:27.209Z,1012.84
2019-04-10T02:56:25.705Z,1012.83
2019-04-10T02:57:25.690Z,1012.83
2019-04-10T02:58:26.500Z,1012.86
2019-04-10T02:59:27.011Z,1012.88
2019-04-10T03:00:26.554Z,1012.89
2019-04-10T03:01:27.038Z,1012.81
2019-04-10T03:02:26.628Z,1012.79
2019-04-10T03:03:25.631Z,1012.86
2019-04-10T03:04:26.720Z,1012.78
2019-04-10T03:05:27.267Z,1012.83
2019-04-10T03:06:27.029Z,1012.83
2019-04-10T03:07:25.912Z,1012.87
2019-04-10T03:08:41.362Z,1012.76
2019-04-10T03:09:42.049Z,1012.78
2019-04-10T03:10:38.319Z,1012.77
2019-04-10T03:11:27.963Z,1012.77
2019-04-10T03:12:25.579Z,1012.79
2019-04-10T03:13:26.972Z,1012.85
2019-04-10T03:14:26.422Z,1012.84
2019-04-10T03:15:25.549Z,1012.77
2019-04-10T03:16:25.485Z,1012.74
2019-04-10T03:17:26.056Z,1012.76
2019-04-10T03:18:25.464Z,1012.86
2019-04-10T03:19:25.587Z,1012.76
2019-04-10T03:20:26.550Z,1012.80
2019-04-10T03:21:25.428Z,1012.77
2019-04-10T03:22:26.588Z,1012.82
2019-04-10T03:23:25.409Z,1012.86
2019-04-10T03:24:25.413Z,1012.84
2019-04-10T03:25:25.399Z,1012.82
2019-04-10T03:26:25.667Z,1012.81
2019-04-10T03:27:26.052Z,1012.78
2019-04-10T03:28:25.359Z,1012.75
2019-04-10T03:29:25.346Z,1012.81
2019-04-10T03:30:27.181Z,1012.81
2019-04-10T03:31:27.343Z,1012.79
2019-04-10T03:32:28.562Z,1012.83
2019-04-10T03:33:29.843Z,1012.78
2019-04-10T03:34:28.975Z,1012.79
2019-04-10T03:35:25.294Z,1012.86
2019-04-10T03:36:25.314Z,1012.82
2019-04-10T03:37:26.426Z,1012.82
2019-04-10T03:38:25.776Z,1012.82
2019-04-10T03:39:25.795Z,1012.88
2019-04-10T03:40:25.258Z,1012.84
2019-04-10T03:41:26.119Z,1012.84
2019-04-10T03:42:25.334Z,1012.79
2019-04-10T03:43:25.814Z,1012.86
2019-04-10T03:44:25.189Z,1012.91
2019-04-10T03:45:25.378Z,1012.88
2019-04-10T03:46:25.634Z,1012.86
2019-04-10T03:47:25.208Z,1012.87
2019-04-10T03:48:25.256Z,1012.89
2019-04-10T03:49:25.529Z,1012.89
2019-04-10T03:50:25.828Z,1012.84
2019-04-10T03:51:25.129Z,1012.91
2019-04-10T03:52:25.345Z,1012.88
2019-04-10T03:53:25.094Z,1012.87
2019-04-10T03:54:25.080Z,1012.90
2019-04-10T03:55:25.218Z,1012.88
2019-04-10T03:56:25.556Z,1012.90
2019-04-10T03:57:25.049Z,1012.85
2019-04-10T03:58:25.163Z,1012.84
2019-04-10T03:59:25.028Z,1012.85
2019-04-10T04:00:25.857Z,1012.95
2019-04-10T04:01:25.114Z,1012.92
2019-04-10T04:02:25.009Z,1012.91
2019-04-10T04:03:25.000Z,1013.00
2019-04-10T04:04:25.805Z,1012.98
2019-04-10T04:05:24.969Z,1012.99
2019-04-10T04:06:25.802Z,1012.92
2019-04-10T04:07:26.991Z,1012.98
2019-04-10T04:08:25.675Z,1012.97
2019-04-10T04:09:24.939Z,1012.96
2019-04-10T04:10:24.911Z,1013.04
2019-04-10T04:11:25.775Z,1013.01
2019-04-10T04:12:24.892Z,1013.00
2019-04-10T04:13:25.773Z,1013.00
2019-04-10T04:14:24.880Z,1012.97
2019-04-10T04:15:24.857Z,1012.96
2019-04-10T04:16:24.874Z,1012.99
2019-04-10T04:17:24.852Z,1013.02
2019-04-10T04:18:24.928Z,1013.01
2019-04-10T04:19:24.818Z,1012.98
2019-04-10T04:20:24.824Z,1013.00
2019-04-10T04:21:25.827Z,1012.97
2019-04-10T04:22:25.034Z,1013.02
2019-04-10T04:23:25.751Z,1012.96
2019-04-10T04:24:25.544Z,1013.03
2019-04-10T04:25:24.763Z,1013.06
2019-04-10T04:26:25.317Z,1013.03
2019-04-10T04:27:25.056Z,1013.03
2019-04-10T04:28:25.755Z,1013.01
2019-04-10T04:29:24.807Z,1013.07
2019-04-10T04:30:24.749Z,1013.03
2019-04-10T04:31:24.973Z,1013.01
2019-04-10T04:32:24.681Z,1013.10
2019-04-10T04:33:24.669Z,1013.04
2019-04-10T04:34:25.037Z,1013.12
2019-04-10T04:35:25.609Z,1013.10
2019-04-10T04:36:24.683Z,1013.12
2019-04-10T04:37:24.625Z,1013.12
2019-04-10T04:38:25.611Z,1013.10
2019-04-10T04:39:26.968Z,1013.09
2019-04-10T04:40:24.613Z,1013.11
2019-04-10T04:41:25.331Z,1013.10
2019-04-10T04:42:24.571Z,1013.11
2019-04-10T04:43:25.144Z,1013.10
2019-04-10T04:44:24.668Z,1013.07
2019-04-10T04:45:25.598Z,1013.15
2019-04-10T04:46:24.558Z,1013.14
2019-04-10T04:47:24.531Z,1013.13
2019-04-10T04:48:24.516Z,1013.18
2019-04-10T04:49:24.508Z,1013.13
2019-04-10T04:50:24.763Z,1013.20
2019-04-10T04:51:25.875Z,1013.12
2019-04-10T04:52:24.465Z,1013.17
2019-04-10T04:53:24.459Z,1013.15
2019-04-10T04:54:25.486Z,1013.16
2019-04-10T04:55:24.433Z,1013.24
2019-04-10T04:56:24.442Z,1013.24
2019-04-10T04:57:24.610Z,1013.21
2019-04-10T04:58:24.423Z,1013.24
2019-04-10T04:59:24.402Z,1013.26
2019-04-10T05:00:24.386Z,1013.27
2019-04-10T05:01:24.399Z,1013.25
2019-04-10T05:02:24.368Z,1013.28
2019-04-10T05:03:25.604Z,1013.28
2019-04-10T05:04:25.034Z,1013.25
2019-04-10T05:05:25.242Z,1013.33
2019-04-10T05:06:24.431Z,1013.25
2019-04-10T05:07:24.800Z,1013.33
2019-04-10T05:08:24.295Z,1013.34
2019-04-10T05:09:33.042Z,1013.35
2019-04-10T05:10:25.290Z,1013.34
2019-04-10T05:11:24.600Z,1013.42
2019-04-10T05:14:29.464Z,1013.40
2019-04-10T05:15:29.052Z,1013.47
2019-04-10T05:16:28.119Z,1013.48
2019-04-10T05:17:28.824Z,1013.49
2019-04-10T05:18:29.584Z,1013.47
2019-04-10T05:19:28.299Z,1013.50
2019-04-10T05:20:40.327Z,1013.50
2019-04-10T05:21:29.465Z,1013.51
2019-04-10T05:22:28.750Z,1013.51
2019-04-10T05:23:29.013Z,1013.53
2019-04-10T05:24:28.160Z,1013.50
2019-04-10T05:25:29.392Z,1013.52
2019-04-10T05:26:28.227Z,1013.55
2019-04-10T05:27:28.485Z,1013.59
2019-04-10T05:28:29.495Z,1013.57
2019-04-10T05:29:30.677Z,1013.60
2019-04-10T05:30:27.810Z,1013.61
2019-04-10T05:31:27.885Z,1013.57
2019-04-10T05:32:28.027Z,1013.61
2019-04-10T05:33:28.862Z,1013.64
2019-04-10T05:34:27.765Z,1013.60
2019-04-10T05:35:27.869Z,1013.65
2019-04-10T05:36:27.745Z,1013.69
2019-04-10T05:37:27.745Z,1013.70
2019-04-10T05:38:27.717Z,1013.70
2019-04-10T05:39:39.153Z,1013.63
2019-04-10T05:40:28.733Z,1013.74
2019-04-10T05:41:27.685Z,1013.76
2019-04-10T05:42:28.869Z,1013.76
2019-04-10T05:43:28.172Z,1013.71
2019-04-10T05:44:27.781Z,1013.73
2019-04-10T05:45:27.706Z,1013.76
2019-04-10T05:46:28.342Z,1013.75
2019-04-10T05:47:28.333Z,1013.71
2019-04-10T05:48:27.898Z,1013.79
2019-04-10T05:49:27.601Z,1013.78
2019-04-10T05:50:27.867Z,1013.78
2019-04-10T05:51:27.593Z,1013.79
2019-04-10T05:52:27.579Z,1013.84
2019-04-10T05:53:27.555Z,1013.80
2019-04-10T05:54:27.544Z,1013.83
2019-04-10T05:55:27.532Z,1013.87
2019-04-10T05:56:27.940Z,1013.84
2019-04-10T05:57:28.715Z,1013.84
2019-04-10T05:58:27.505Z,1013.86
2019-04-10T05:59:28.093Z,1013.79
2019-04-10T06:00:27.479Z,1013.78
2019-04-10T06:01:35.083Z,1013.86
2019-04-10T06:02:28.489Z,1013.88
2019-04-10T06:03:28.225Z,1013.85
2019-04-10T06:04:27.514Z,1013.81
2019-04-10T06:05:27.430Z,1013.89
2019-04-10T06:06:28.382Z,1013.86
2019-04-10T06:07:27.421Z,1013.90
2019-04-10T06:08:27.413Z,1013.84
2019-04-10T06:09:27.396Z,1013.93
2019-04-10T06:10:27.376Z,1013.91
2019-04-10T06:11:27.368Z,1014.01
2019-04-10T06:12:28.479Z,1013.89
2019-04-10T06:13:27.717Z,1013.92
2019-04-10T06:14:28.274Z,1013.91
2019-04-10T06:15:27.329Z,1013.91
2019-04-10T06:16:28.158Z,1013.97
2019-04-10T06:17:27.315Z,1014.03
2019-04-10T06:18:27.295Z,1014.00
2019-04-10T06:19:27.279Z,1013.99
2019-04-10T06:20:27.268Z,1014.15
2019-04-10T06:21:28.487Z,1014.45
2019-04-10T06:22:28.411Z,1014.43
2019-04-10T06:23:27.542Z,1014.04
2019-04-10T06:24:27.927Z,1013.97
2019-04-10T06:25:28.771Z,1014.03
2019-04-10T06:26:28.004Z,1014.03
2019-04-10T06:27:28.255Z,1014.33
2019-04-10T06:28:27.936Z,1014.58
2019-04-10T06:29:27.176Z,1014.22
2019-04-10T06:30:27.991Z,1014.06
2019-04-10T06:31:28.399Z,1014.02
2019-04-10T06:32:27.558Z,1014.03
2019-04-10T06:33:28.444Z,1014.06
2019-04-10T06:34:27.125Z,1014.14
2019-04-10T06:35:28.202Z,1014.16
2019-04-10T06:36:27.235Z,1014.09
2019-04-10T06:37:28.213Z,1014.08
2019-04-10T06:38:27.080Z,1014.10
2019-04-10T06:39:27.072Z,1014.16
2019-04-10T06:40:27.975Z,1014.59
2019-04-10T06:41:27.048Z,1014.74
2019-04-10T06:42:27.029Z,1014.83
2019-04-10T06:43:27.043Z,1014.33
2019-04-10T06:44:27.997Z,1014.53
2019-04-10T06:45:27.939Z,1014.16
2019-04-10T06:46:26.993Z,1014.24
2019-04-10T06:47:26.987Z,1014.77
2019-04-10T06:48:27.891Z,1014.65
2019-04-10T06:49:27.057Z,1014.48
2019-04-10T06:50:26.943Z,1014.75
2019-04-10T06:51:27.264Z,1014.56
2019-04-10T06:52:27.048Z,1014.36
2019-04-10T06:53:26.958Z,1014.22
2019-04-10T06:54:26.928Z,1014.21
2019-04-10T06:55:27.991Z,1014.21
2019-04-10T06:56:27.177Z,1014.41
2019-04-10T06:57:27.013Z,1014.67
2019-04-10T06:58:27.629Z,1014.29
2019-04-10T06:59:27.139Z,1014.27
2019-04-10T07:00:26.839Z,1014.41
2019-04-10T07:01:39.014Z,1014.29
2019-04-10T07:02:30.842Z,1014.38
2019-04-10T07:03:43.685Z,1014.40
2019-04-10T07:04:28.401Z,1014.31
2019-04-10T07:05:37.176Z,1014.37
2019-04-10T07:06:44.620Z,1014.33
2019-04-10T07:07:42.347Z,1014.32
2019-04-10T07:08:27.769Z,1014.32
2019-04-10T07:09:27.251Z,1014.35
2019-04-10T07:10:33.551Z,1014.32
2019-04-10T07:11:30.718Z,1014.28
2019-04-10T07:12:30.164Z,1014.30
2019-04-10T07:13:28.073Z,1014.31
2019-04-10T07:14:26.883Z,1014.25
2019-04-10T07:15:27.348Z,1014.32
2019-04-10T07:16:30.793Z,1014.43
2019-04-10T07:17:27.657Z,1014.40
2019-04-10T07:18:26.660Z,1014.47
2019-04-10T07:19:26.635Z,1014.67
2019-04-10T07:20:26.634Z,1014.48
2019-04-10T07:21:27.972Z,1014.37
2019-04-10T07:22:26.908Z,1014.40
2019-04-10T07:23:28.935Z,1014.44
2019-04-10T07:24:27.114Z,1014.52
2019-04-10T07:25:26.568Z,1014.47
2019-04-10T07:26:35.398Z,1014.41
2019-04-10T07:27:27.856Z,1014.45
2019-04-10T07:28:27.748Z,1014.39
2019-04-10T07:29:28.242Z,1014.47
2019-04-10T07:30:27.660Z,1014.45
2019-04-10T07:31:27.350Z,1014.39
2019-04-10T07:32:27.742Z,1014.49
2019-04-10T07:33:26.700Z,1014.53
2019-04-10T07:34:28.529Z,1014.55
2019-04-10T07:35:28.615Z,1014.69
2019-04-10T07:36:28.504Z,1014.51
2019-04-10T07:37:26.956Z,1014.52
2019-04-10T07:38:28.267Z,1014.53
2019-04-10T07:39:29.496Z,1014.53
2019-04-10T07:40:28.300Z,1014.57
2019-04-10T07:41:26.557Z,1014.53
2019-04-10T07:42:32.336Z,1014.51
2019-04-10T07:43:29.107Z,1014.58
2019-04-10T07:44:26.365Z,1014.92
2019-04-10T07:45:27.305Z,1014.94
2019-04-10T07:46:26.365Z,1014.69
2019-04-10T07:47:27.232Z,1014.59
2019-04-10T07:48:27.363Z,1014.62
2019-04-10T07:49:29.675Z,1014.68
2019-04-10T07:50:26.298Z,1014.58
2019-04-10T07:51:26.323Z,1014.65
2019-04-10T07:52:27.462Z,1014.62
2019-04-10T07:53:26.810Z,1014.68
2019-04-10T07:54:26.746Z,1014.65
2019-04-10T07:55:26.246Z,1014.70
2019-04-10T07:56:26.743Z,1014.67
2019-04-10T07:57:26.691Z,1014.69
2019-04-10T07:58:26.989Z,1014.66
2019-04-10T07:59:27.167Z,1014.75
2019-04-10T08:00:26.968Z,1014.77
2019-04-10T08:01:26.441Z,1014.80
2019-04-10T08:02:26.170Z,1014.75
2019-04-10T08:03:26.166Z,1014.74
2019-04-10T08:04:26.848Z,1014.77
2019-04-10T08:05:26.996Z,1014.82
2019-04-10T08:06:26.128Z,1014.81
2019-04-10T08:07:30.425Z,1014.78
2019-04-10T08:08:27.828Z,1014.76
2019-04-10T08:09:26.842Z,1014.81
2019-04-10T08:10:26.401Z,1014.84
2019-04-10T08:11:26.199Z,1014.82
2019-04-10T08:12:37.557Z,1014.85
2019-04-10T08:13:27.052Z,1014.83
2019-04-10T08:14:27.219Z,1014.83
2019-04-10T08:15:27.255Z,1014.83
2019-04-10T08:16:26.021Z,1014.76
2019-04-10T08:17:26.256Z,1014.87
2019-04-10T08:18:25.996Z,1014.86
2019-04-10T08:19:27.577Z,1014.95
2019-04-10T08:20:26.173Z,1014.86
2019-04-10T08:21:25.976Z,1014.88
2019-04-10T08:22:26.437Z,1014.84
2019-04-10T08:23:26.052Z,1014.85
2019-04-10T08:24:25.961Z,1014.88
2019-04-10T08:25:26.911Z,1014.90
2019-04-10T08:26:25.918Z,1014.88
2019-04-10T08:27:25.915Z,1014.90
2019-04-10T08:28:27.966Z,1014.89
2019-04-10T08:29:26.045Z,1014.99
2019-04-10T08:30:25.985Z,1014.94
2019-04-10T08:31:25.860Z,1014.95
2019-04-10T08:32:25.872Z,1014.91
2019-04-10T08:33:26.026Z,1015.01
2019-04-10T08:34:26.113Z,1014.95
2019-04-10T08:35:25.810Z,1014.90
2019-04-10T08:36:25.802Z,1014.89
2019-04-10T08:37:26.304Z,1014.90
2019-04-10T08:38:25.944Z,1014.95
2019-04-10T08:39:35.256Z,1014.94
2019-04-10T08:40:27.776Z,1015.00
2019-04-10T08:41:27.098Z,1015.15
2019-04-10T08:42:26.585Z,1015.13
2019-04-10T08:43:26.661Z,1014.91
2019-04-10T08:44:25.718Z,1014.95
2019-04-10T08:45:36.721Z,1015.02
2019-04-10T08:46:26.712Z,1015.07
2019-04-10T08:47:26.726Z,1015.19
2019-04-10T08:48:27.605Z,1015.21
2019-04-10T08:49:25.669Z,1015.07
2019-04-10T08:50:26.007Z,1015.15
2019-04-10T08:51:25.774Z,1015.15
2019-04-10T08:52:25.628Z,1015.25
2019-04-10T08:53:27.129Z,1015.02
2019-04-10T08:54:25.900Z,1014.94
2019-04-10T08:55:26.157Z,1014.99
2019-04-10T08:56:25.591Z,1014.97
2019-04-10T08:57:25.673Z,1015.10
2019-04-10T08:58:25.561Z,1015.19
2019-04-10T08:59:25.719Z,1015.23
2019-04-10T09:00:26.770Z,1015.17
2019-04-10T09:01:25.540Z,1015.19
2019-04-10T09:02:26.225Z,1015.29
2019-04-10T09:03:26.656Z,1015.11
2019-04-10T09:04:26.070Z,1014.99
2019-04-10T09:05:25.762Z,1015.07
2019-04-10T09:06:25.488Z,1015.33
2019-04-10T09:07:26.319Z,1015.40
2019-04-10T09:08:26.566Z,1015.18
2019-04-10T09:09:25.717Z,1015.15
2019-04-10T09:10:26.057Z,1015.26
2019-04-10T09:11:28.420Z,1015.49
2019-04-10T09:12:26.069Z,1015.15
2019-04-10T09:13:25.404Z,1015.10
2019-04-10T09:14:26.263Z,1015.21
2019-04-10T09:15:25.755Z,1015.23
2019-04-10T09:16:25.378Z,1015.07
2019-04-10T09:17:25.363Z,1015.05
2019-04-10T09:18:25.356Z,1015.08
2019-04-10T09:19:25.687Z,1015.32
2019-04-10T09:20:25.331Z,1015.28
2019-04-10T09:21:25.330Z,1014.99
2019-04-10T09:22:25.311Z,1014.95
2019-04-10T09:23:37.368Z,1014.89
2019-04-10T09:24:26.340Z,1014.92
2019-04-10T09:25:25.278Z,1014.88
2019-04-10T09:26:26.445Z,1014.96
2019-04-10T09:27:25.266Z,1014.86
2019-04-10T09:28:26.441Z,1014.93
2019-04-10T09:29:25.804Z,1014.93
2019-04-10T09:30:25.243Z,1015.14
2019-04-10T09:31:26.000Z,1015.03
2019-04-10T09:32:26.359Z,1015.29
2019-04-10T09:33:28.253Z,1015.10
2019-04-10T09:34:26.180Z,1015.05
2019-04-10T09:35:25.185Z,1015.24
2019-04-10T09:36:25.182Z,1014.98
2019-04-10T09:37:26.109Z,1014.91
2019-04-10T09:38:26.137Z,1015.25
2019-04-10T09:39:25.403Z,1015.35
2019-04-10T09:40:25.129Z,1015.06
2019-04-10T09:41:25.903Z,1014.99
2019-04-10T09:42:25.624Z,1015.04
2019-04-10T09:43:25.323Z,1014.98
2019-04-10T09:44:25.677Z,1015.11
2019-04-10T09:45:25.263Z,1014.96
2019-04-10T09:46:25.055Z,1015.11
2019-04-10T09:47:25.040Z,1015.07
2019-04-10T09:48:25.029Z,1014.99
2019-04-10T09:49:33.923Z,1015.07
2019-04-10T09:50:26.265Z,1015.05
2019-04-10T09:51:25.620Z,1014.99
2019-04-10T09:52:25.768Z,1015.01
2019-04-10T09:53:24.979Z,1015.03
2019-04-10T09:54:25.936Z,1014.93
2019-04-10T09:55:24.973Z,1014.97
2019-04-10T09:56:25.526Z,1015.00
2019-04-10T09:57:24.934Z,1015.03
2019-04-10T09:58:26.102Z,1015.01
2019-04-10T09:59:32.906Z,1014.99
2019-04-10T10:00:25.928Z,1014.98
2019-04-10T10:01:25.997Z,1015.04
2019-04-10T10:02:25.269Z,1015.12
2019-04-10T10:03:24.874Z,1015.06
2019-04-10T10:04:25.740Z,1015.00
2019-04-10T10:05:24.871Z,1015.03
2019-04-10T10:06:30.755Z,1015.02
2019-04-10T10:07:26.334Z,1015.00
2019-04-10T10:08:24.869Z,1015.02
2019-04-10T10:09:25.976Z,1015.26
2019-04-10T10:10:24.794Z,1015.35
2019-04-10T10:11:24.804Z,1015.09
2019-04-10T10:12:25.664Z,1015.12
2019-04-10T10:13:25.576Z,1015.07
2019-04-10T10:14:24.758Z,1015.01
2019-04-10T10:15:25.278Z,1015.02
2019-04-10T10:16:25.474Z,1015.49
2019-04-10T10:17:24.723Z,1015.07
2019-04-10T10:18:25.598Z,1015.14
2019-04-10T10:19:25.873Z,1015.24
2019-04-10T10:20:25.839Z,1015.34
2019-04-10T10:21:24.693Z,1015.16
2019-04-10T10:22:25.255Z,1015.08
2019-04-10T10:23:25.596Z,1015.47
2019-04-10T10:24:24.711Z,1015.15
2019-04-10T10:25:24.635Z,1015.02
2019-04-10T10:26:24.640Z,1015.08
2019-04-10T10:27:24.753Z,1015.21
2019-04-10T10:28:24.602Z,1015.13
2019-04-10T10:29:24.587Z,1015.19
2019-04-10T10:30:25.140Z,1015.31
2019-04-10T10:31:24.583Z,1015.43
2019-04-10T10:32:24.759Z,1015.42
2019-04-10T10:33:25.731Z,1015.14
2019-04-10T10:34:24.536Z,1015.02
2019-04-10T10:35:25.205Z,1015.01
2019-04-10T10:36:34.737Z,1015.19
2019-04-10T10:37:26.435Z,1015.31
2019-04-10T10:38:25.172Z,1015.20
2019-04-10T10:39:24.487Z,1015.37
2019-04-10T10:40:25.530Z,1015.57
2019-04-10T10:41:24.471Z,1015.46
2019-04-10T10:42:24.455Z,1015.30
2019-04-10T10:43:24.580Z,1015.56
2019-04-10T10:44:24.428Z,1015.53
2019-04-10T10:45:24.989Z,1015.60
2019-04-10T10:46:25.171Z,1015.22
2019-04-10T10:47:24.401Z,1015.25
2019-04-10T10:48:24.383Z,1015.10
2019-04-10T10:49:24.422Z,1015.21
2019-04-10T10:50:25.508Z,1015.16
2019-04-10T10:51:24.573Z,1015.40
2019-04-10T10:52:24.345Z,1015.30
2019-04-10T10:53:24.339Z,1015.19
2019-04-10T10:54:25.025Z,1014.94
2019-04-10T10:55:25.327Z,1015.35
2019-04-10T10:56:24.502Z,1015.34
2019-04-10T10:57:24.865Z,1015.29
2019-04-10T10:58:24.295Z,1015.07
2019-04-10T10:59:25.186Z,1015.25
2019-04-10T11:00:25.198Z,1015.42
2019-04-10T11:01:24.267Z,1015.71
2019-04-10T11:02:25.451Z,1015.67
2019-04-10T11:03:24.484Z,1015.78
2019-04-10T11:04:24.227Z,1015.44
2019-04-10T11:05:25.193Z,1015.40
2019-04-10T11:06:24.761Z,1015.53
2019-04-10T11:07:24.560Z,1015.72
2019-04-10T11:08:24.179Z,1015.43
2019-04-10T11:09:24.165Z,1015.82
2019-04-10T11:10:27.375Z,1015.80
2019-04-10T11:11:24.193Z,1015.75
2019-04-10T11:12:24.250Z,1015.75
2019-04-10T11:13:24.291Z,1015.26
2019-04-10T11:14:24.113Z,1015.21
2019-04-10T11:15:24.106Z,1015.01
2019-04-10T11:16:24.857Z,1015.29
2019-04-10T11:17:25.432Z,1015.56
2019-04-10T11:18:24.769Z,1015.29
2019-04-10T11:19:24.063Z,1015.41
2019-04-10T11:20:24.183Z,1015.62
2019-04-10T11:21:24.777Z,1015.48
2019-04-10T11:22:25.795Z,1015.63
2019-04-10T11:23:24.551Z,1015.64
2019-04-10T11:24:25.454Z,1015.22
2019-04-10T11:25:24.003Z,1015.29
2019-04-10T11:26:25.577Z,1015.63
2019-04-10T11:27:25.230Z,1015.59
2019-04-10T11:28:28.668Z,1015.62
2019-04-10T11:29:25.102Z,1015.63
2019-04-10T11:30:24.897Z,1015.53
2019-04-10T11:31:25.095Z,1015.52
2019-04-10T11:32:24.050Z,1015.61
2019-04-10T11:33:24.999Z,1015.61
2019-04-10T11:34:24.299Z,1015.64
2019-04-10T11:35:24.289Z,1015.66
2019-04-10T11:36:23.904Z,1015.73
2019-04-10T11:37:34.346Z,1015.65
2019-04-10T11:38:25.884Z,1015.71
2019-04-10T11:39:26.806Z,1015.82
2019-04-10T11:40:26.409Z,1015.78
2019-04-10T11:41:25.967Z,1015.86
2019-04-10T11:42:24.010Z,1015.87
2019-04-10T11:43:25.978Z,1015.46
2019-04-10T11:44:24.936Z,1014.88
2019-04-10T11:45:28.278Z,1014.89
2019-04-10T11:46:28.229Z,1015.48
2019-04-10T11:47:26.614Z,1015.03
2019-04-10T11:48:25.655Z,1015.03
2019-04-10T11:49:23.847Z,1015.41
2019-04-10T11:50:25.425Z,1014.87
2019-04-10T11:51:26.318Z,1014.92
2019-04-10T11:52:33.807Z,1015.73
2019-04-10T11:53:27.158Z,1015.45
2019-04-10T11:54:26.933Z,1015.17
2019-04-10T11:55:27.924Z,1015.54
2019-04-10T11:56:24.284Z,1014.94
2019-04-10T11:57:23.672Z,1014.82
2019-04-10T11:58:25.243Z,1014.81
2019-04-10T11:59:24.293Z,1014.68
2019-04-10T12:00:26.723Z,1014.80
2019-04-10T12:01:25.420Z,1014.74
2019-04-10T12:02:24.991Z,1014.77
2019-04-10T12:03:24.606Z,1014.73
2019-04-10T12:04:25.466Z,1014.66
2019-04-10T12:05:25.443Z,1014.67
2019-04-10T12:06:25.344Z,1014.68
2019-04-10T12:07:54.977Z,1014.70